Time;durP1;ratioP1;P1;durP2;ratioP2;P2;SDS_P1;SDS_P2;PMS_P1;PMS_P2;Temp;Humidity;BMP_temperature;BMP_pressure;BME280_temperature;BME280_humidity;BME280_pressure;Samples;Min_cycle;Max_cycle;Signal;HPM_P1;HPM_P2
2023/09/13 00:01:24;;;;;;;33.88;28.40;;;22.80;1.00;;;;;;5021742;28;20112;-73
2023/09/13 00:03:49;;;;;;;35.22;27.45;;;22.80;1.00;;;;;;5020886;28;20089;-73
2023/09/13 00:06:16;;;;;;;35.45;29.13;;;22.80;1.00;;;;;;5013750;28;20025;-73
2023/09/13 00:08:42;;;;;;;33.65;27.52;;;22.70;1.00;;;;;;5020541;28;20391;-74
2023/09/13 00:11:07;;;;;;;33.83;27.98;;;22.80;1.00;;;;;;5022078;28;20080;-73
2023/09/13 00:13:33;;;;;;;38.03;28.50;;;22.80;1.00;;;;;;5012996;28;20029;-74
2023/09/13 00:15:59;;;;;;;36.67;29.38;;;22.80;1.00;;;;;;5020675;28;20028;-73
2023/09/13 00:18:24;;;;;;;37.50;27.80;;;22.70;1.00;;;;;;5023049;28;20524;-74
2023/09/13 00:20:54;;;;;;;32.75;28.40;;;22.70;1.00;;;;;;5020160;28;20116;-73
2023/09/13 00:23:20;;;;;;;34.03;28.67;;;22.70;1.00;;;;;;5021531;28;20025;-73
2023/09/13 00:25:46;;;;;;;37.58;28.38;;;22.80;1.00;;;;;;5022306;28;20029;-74
2023/09/13 00:28:12;;;;;;;36.03;28.65;;;22.70;1.00;;;;;;5023245;28;20441;-73
2023/09/13 00:30:37;;;;;;;33.97;28.40;;;22.70;1.00;;;;;;5022691;28;20029;-73
2023/09/13 00:33:04;;;;;;;35.28;28.80;;;22.70;1.00;;;;;;5020856;28;20065;-73
2023/09/13 00:35:29;;;;;;;36.13;29.52;;;22.70;1.00;;;;;;5020923;28;20045;-74
2023/09/13 00:37:55;;;;;;;39.33;28.88;;;22.70;1.00;;;;;;5024041;28;20121;-74
2023/09/13 00:40:20;;;;;;;30.40;27.15;;;22.70;1.00;;;;;;5019790;28;20033;-73
2023/09/13 00:42:46;;;;;;;36.63;28.13;;;22.70;1.00;;;;;;5022474;28;20040;-73
2023/09/13 00:45:12;;;;;;;34.90;27.17;;;22.70;1.00;;;;;;5020851;28;20366;-74
2023/09/13 00:47:42;;;;;;;35.95;28.42;;;22.70;1.00;;;;;;5020931;28;20404;-74
2023/09/13 00:50:11;;;;;;;35.92;27.63;;;22.70;1.00;;;;;;5012884;28;20102;-73
2023/09/13 00:52:38;;;;;;;35.80;29.23;;;22.70;1.00;;;;;;5020335;28;20068;-74
2023/09/13 00:55:06;;;;;;;32.58;26.30;;;22.70;1.00;;;;;;5021007;28;20018;-74
2023/09/13 00:57:33;;;;;;;31.52;27.75;;;22.70;1.00;;;;;;5013209;28;20053;-74
2023/09/13 01:00:00;;;;;;;34.17;27.17;;;22.70;1.00;;;;;;5019556;28;20024;-73
2023/09/13 01:02:26;;;;;;;33.92;26.42;;;22.70;1.00;;;;;;5022995;28;20036;-74
2023/09/13 01:04:52;;;;;;;34.58;25.30;;;22.70;1.00;;;;;;5025026;28;20389;-74
2023/09/13 01:07:19;;;;;;;28.63;25.50;;;22.70;1.00;;;;;;5023962;28;20022;-74
2023/09/13 01:09:44;;;;;;;30.63;26.38;;;22.60;1.00;;;;;;5026720;28;20678;-75
2023/09/13 01:12:10;;;;;;;29.20;25.17;;;22.60;1.00;;;;;;5006188;28;20020;-76
2023/09/13 01:14:36;;;;;;;32.15;26.13;;;22.60;1.00;;;;;;5025288;28;20104;-76
2023/09/13 01:17:14;;;;;;;35.63;26.42;;;22.60;1.00;;;;;;5025214;28;20058;-75
2023/09/13 01:19:41;;;;;;;29.23;26.13;;;22.60;1.00;;;;;;5023969;28;20022;-75
2023/09/13 01:22:28;;;;;;;30.58;25.67;;;22.60;1.00;;;;;;5024785;28;20032;-75
2023/09/13 01:25:12;;;;;;;30.63;25.33;;;22.60;1.00;;;;;;5024605;28;20033;-76
2023/09/13 01:27:42;;;;;;;36.50;24.10;;;22.60;1.00;;;;;;5027212;28;20437;-75
2023/09/13 01:30:08;;;;;;;29.60;25.58;;;22.60;1.00;;;;;;5023928;28;20428;-75
2023/09/13 01:32:35;;;;;;;29.02;24.17;;;22.60;1.00;;;;;;5026320;28;20018;-76
2023/09/13 01:35:01;;;;;;;29.35;24.75;;;22.60;1.00;;;;;;5025979;28;20087;-76
2023/09/13 01:37:29;;;;;;;29.23;24.42;;;22.60;1.00;;;;;;5023866;28;20441;-75
2023/09/13 01:39:54;;;;;;;25.67;22.90;;;22.50;1.00;;;;;;5023902;28;20033;-75
2023/09/13 01:42:21;;;;;;;28.50;22.90;;;22.50;1.00;;;;;;5026722;28;20108;-75
2023/09/13 01:44:47;;;;;;;28.05;24.77;;;22.50;1.00;;;;;;5025694;28;20152;-75
2023/09/13 01:47:16;;;;;;;29.75;25.35;;;22.50;1.00;;;;;;5023748;28;20084;-75
2023/09/13 01:49:43;;;;;;;32.05;24.92;;;22.40;1.00;;;;;;5023874;28;20045;-75
2023/09/13 01:52:09;;;;;;;29.20;25.20;;;22.50;1.00;;;;;;5025196;28;20050;-75
2023/09/13 01:54:36;;;;;;;28.80;24.80;;;22.50;1.00;;;;;;5022622;28;20163;-75
2023/09/13 01:57:02;;;;;;;26.65;23.75;;;22.40;1.00;;;;;;5010900;28;20030;-75
2023/09/13 01:59:28;;;;;;;28.73;24.45;;;22.40;1.00;;;;;;5024261;28;20022;-75
2023/09/13 02:01:54;;;;;;;27.70;23.60;;;22.40;1.00;;;;;;5023052;28;20497;-75
2023/09/13 02:04:20;;;;;;;27.60;22.52;;;22.40;1.00;;;;;;5025532;28;20025;-75
2023/09/13 02:06:45;;;;;;;26.20;23.30;;;22.40;1.00;;;;;;5022561;28;20033;-75
2023/09/13 02:09:11;;;;;;;30.42;22.48;;;22.40;1.00;;;;;;5006712;28;20111;-76
2023/09/13 02:11:37;;;;;;;30.05;24.52;;;22.40;1.00;;;;;;5015269;28;20079;-76
2023/09/13 02:14:02;;;;;;;29.20;23.23;;;22.40;1.00;;;;;;5022331;28;20458;-75
2023/09/13 02:16:28;;;;;;;28.02;24.30;;;22.40;1.00;;;;;;5025379;28;20389;-76
2023/09/13 02:18:54;;;;;;;27.45;23.98;;;22.50;1.00;;;;;;5022731;28;20022;-76
2023/09/13 02:21:20;;;;;;;28.52;24.30;;;22.50;1.00;;;;;;5006149;28;20043;-75
2023/09/13 02:23:46;;;;;;;27.15;23.02;;;22.50;1.00;;;;;;5024047;28;20025;-76
2023/09/13 02:26:19;;;;;;;28.63;23.45;;;22.50;1.00;;;;;;5024755;28;20037;-75
2023/09/13 02:28:45;;;;;;;27.35;23.23;;;22.50;1.00;;;;;;5021505;28;20038;-75
2023/09/13 02:31:11;;;;;;;30.90;24.05;;;22.50;1.00;;;;;;5023486;28;20080;-75
2023/09/13 02:33:36;;;;;;;30.27;23.40;;;22.50;1.00;;;;;;5024382;28;20097;-76
2023/09/13 02:36:02;;;;;;;28.63;23.70;;;22.50;1.00;;;;;;5021694;28;20041;-75
2023/09/13 02:38:28;;;;;;;29.25;23.23;;;22.50;1.00;;;;;;5024946;28;20014;-75
2023/09/13 02:40:53;;;;;;;28.90;23.85;;;22.50;1.00;;;;;;5023412;28;20034;-76
2023/09/13 02:43:19;;;;;;;28.48;23.50;;;22.50;1.00;;;;;;5023141;28;20025;-75
2023/09/13 02:45:44;;;;;;;28.42;22.65;;;22.50;1.00;;;;;;5024100;28;20139;-76
2023/09/13 02:48:10;;;;;;;26.77;21.05;;;22.40;1.00;;;;;;5021701;28;20029;-76
2023/09/13 02:50:40;;;;;;;28.20;22.95;;;22.50;1.00;;;;;;5024264;28;20392;-75
2023/09/13 02:53:06;;;;;;;23.02;20.58;;;22.40;1.00;;;;;;5023085;28;20041;-75
2023/09/13 02:55:32;;;;;;;23.98;21.05;;;22.50;1.00;;;;;;5004634;28;20172;-75
2023/09/13 02:57:57;;;;;;;23.95;21.35;;;22.50;1.00;;;;;;5028291;28;20027;-75
2023/09/13 03:00:23;;;;;;;26.73;22.05;;;22.50;1.00;;;;;;5021551;28;20030;-75
2023/09/13 03:02:49;;;;;;;30.45;21.63;;;22.50;1.00;;;;;;5023609;28;20075;-75
2023/09/13 03:05:15;;;;;;;24.63;21.52;;;22.50;1.00;;;;;;5022751;28;20121;-75
2023/09/13 03:07:41;;;;;;;28.67;21.17;;;22.50;1.00;;;;;;5021926;28;20030;-75
2023/09/13 03:10:07;;;;;;;26.58;20.92;;;22.50;1.00;;;;;;5024317;28;20037;-76
2023/09/13 03:12:33;;;;;;;28.00;21.13;;;22.50;1.00;;;;;;5020562;28;20026;-76
2023/09/13 03:14:59;;;;;;;24.17;21.73;;;22.50;1.00;;;;;;5022337;28;20100;-75
2023/09/13 03:17:25;;;;;;;27.50;20.60;;;22.60;1.00;;;;;;5022302;28;20057;-76
2023/09/13 03:19:50;;;;;;;26.17;20.75;;;22.60;1.00;;;;;;5006166;28;20034;-76
2023/09/13 03:22:18;;;;;;;22.95;19.38;;;22.60;1.00;;;;;;5020903;28;20026;-75
2023/09/13 03:24:44;;;;;;;23.33;20.58;;;22.60;1.00;;;;;;5012445;28;20053;-76
2023/09/13 03:27:10;;;;;;;23.17;20.50;;;22.60;1.00;;;;;;5023267;28;20028;-76
2023/09/13 03:29:36;;;;;;;24.40;21.80;;;22.60;1.00;;;;;;5023415;28;20439;-76
2023/09/13 03:32:02;;;;;;;29.60;21.27;;;22.50;1.00;;;;;;5020684;28;20026;-75
2023/09/13 03:34:27;;;;;;;25.00;20.55;;;22.50;1.00;;;;;;5023664;28;20025;-75
2023/09/13 03:36:54;;;;;;;25.63;20.73;;;22.50;1.00;;;;;;5021582;28;20026;-75
2023/09/13 03:39:20;;;;;;;22.75;20.40;;;22.40;1.00;;;;;;5004260;28;20029;-75
2023/09/13 03:41:46;;;;;;;29.58;20.55;;;22.40;1.00;;;;;;5021600;28;20029;-75
2023/09/13 03:44:11;;;;;;;25.42;20.88;;;22.40;1.00;;;;;;5024262;28;20378;-75
2023/09/13 03:46:37;;;;;;;24.63;20.27;;;22.40;1.00;;;;;;5005680;28;20029;-76
2023/09/13 03:49:03;;;;;;;22.85;19.50;;;22.30;1.00;;;;;;5021758;28;20030;-76
2023/09/13 03:51:29;;;;;;;21.88;19.50;;;22.30;1.00;;;;;;5006754;28;20383;-75
2023/09/13 03:53:58;;;;;;;24.75;19.70;;;22.30;1.00;;;;;;5023131;28;20095;-75
2023/09/13 03:56:23;;;;;;;19.20;17.23;;;22.20;1.00;;;;;;5023692;28;20022;-75
2023/09/13 03:58:49;;;;;;;21.10;18.33;;;22.20;1.00;;;;;;5004911;28;20017;-76
2023/09/13 04:01:15;;;;;;;22.80;19.45;;;22.20;1.00;;;;;;5022144;28;20030;-75
2023/09/13 04:03:40;;;;;;;22.23;18.65;;;22.20;1.00;;;;;;5002789;28;20035;-75
2023/09/13 04:06:06;;;;;;;20.23;18.10;;;22.20;1.00;;;;;;5023228;28;20489;-75
2023/09/13 04:08:32;;;;;;;19.83;17.52;;;22.20;1.00;;;;;;5020631;28;20032;-75
2023/09/13 04:10:57;;;;;;;23.65;18.85;;;22.10;1.00;;;;;;5022246;28;20029;-76
2023/09/13 04:13:23;;;;;;;24.30;18.00;;;22.10;1.00;;;;;;5021845;28;20022;-75
2023/09/13 04:15:49;;;;;;;22.10;18.52;;;22.10;1.00;;;;;;5020643;28;20018;-75
2023/09/13 04:18:14;;;;;;;22.25;17.73;;;22.10;1.00;;;;;;5022954;28;20033;-76
2023/09/13 04:20:45;;;;;;;18.38;16.30;;;22.10;1.00;;;;;;5020300;28;20029;-75
2023/09/13 04:23:11;;;;;;;26.25;17.67;;;22.10;1.00;;;;;;5013001;28;20397;-75
2023/09/13 04:25:36;;;;;;;20.15;17.58;;;22.10;1.00;;;;;;5020342;28;20041;-76
2023/09/13 04:28:02;;;;;;;20.95;16.30;;;22.10;1.00;;;;;;5023224;28;20037;-76
2023/09/13 04:30:28;;;;;;;18.50;16.60;;;22.10;1.00;;;;;;5004966;28;20030;-76
2023/09/13 04:32:54;;;;;;;21.05;16.50;;;22.20;1.00;;;;;;5020989;28;20026;-75
2023/09/13 04:35:20;;;;;;;17.90;16.05;;;22.20;1.00;;;;;;5020858;28;20109;-75
2023/09/13 04:37:45;;;;;;;19.98;17.85;;;22.30;1.00;;;;;;5021185;28;20018;-75
2023/09/13 04:40:12;;;;;;;19.63;17.63;;;22.30;1.00;;;;;;5022975;28;20030;-75
2023/09/13 04:42:42;;;;;;;20.73;17.08;;;22.10;1.00;;;;;;5020460;28;20022;-75
2023/09/13 04:45:09;;;;;;;19.08;17.08;;;22.10;1.00;;;;;;5020583;28;20597;-76
2023/09/13 04:47:35;;;;;;;19.45;17.48;;;22.10;1.00;;;;;;5022529;28;20025;-75
2023/09/13 04:50:02;;;;;;;19.27;16.60;;;22.10;1.00;;;;;;5019589;28;20386;-75
2023/09/13 04:52:28;;;;;;;18.00;16.00;;;22.20;1.00;;;;;;5021692;28;20121;-76
2023/09/13 04:54:53;;;;;;;18.52;16.55;;;22.20;1.00;;;;;;5021143;28;20180;-75
2023/09/13 04:57:19;;;;;;;16.67;14.80;;;22.20;1.00;;;;;;5023223;28;20018;-76
2023/09/13 04:59:48;;;;;;;19.17;15.25;;;22.20;1.00;;;;;;5013211;28;20021;-75
2023/09/13 05:02:14;;;;;;;16.00;14.40;;;22.20;1.00;;;;;;5020369;28;20600;-75
2023/09/13 05:04:40;;;;;;;19.48;14.60;;;22.20;1.00;;;;;;5021268;28;20120;-75
2023/09/13 05:07:06;;;;;;;19.23;15.10;;;22.30;1.00;;;;;;5021767;28;20026;-75
2023/09/13 05:09:32;;;;;;;16.48;14.77;;;22.30;1.00;;;;;;5001979;28;20037;-75
2023/09/13 05:11:59;;;;;;;17.90;14.93;;;22.30;1.00;;;;;;5007171;28;20033;-75
2023/09/13 05:14:25;;;;;;;18.20;14.52;;;22.30;1.00;;;;;;5021458;28;20413;-75
2023/09/13 05:16:51;;;;;;;19.27;15.23;;;22.20;1.00;;;;;;5024884;28;20018;-75
2023/09/13 05:19:18;;;;;;;19.55;14.68;;;22.20;1.00;;;;;;5029445;28;20358;-76
2023/09/13 05:21:44;;;;;;;16.48;14.63;;;22.20;1.00;;;;;;5030327;28;20381;-76
2023/09/13 05:24:09;;;;;;;16.40;14.63;;;22.20;1.00;;;;;;5030171;28;20025;-75
2023/09/13 05:26:35;;;;;;;24.98;15.27;;;22.20;1.00;;;;;;5030355;28;20013;-75
2023/09/13 05:29:02;;;;;;;18.30;15.32;;;22.10;1.00;;;;;;5024049;28;20393;-76
2023/09/13 05:31:28;;;;;;;16.95;15.25;;;22.20;1.00;;;;;;5026776;28;20096;-75
2023/09/13 05:33:54;;;;;;;23.98;17.20;;;22.20;1.00;;;;;;5029419;28;20022;-75
2023/09/13 05:36:19;;;;;;;18.33;16.35;;;22.20;1.00;;;;;;5009289;28;20076;-75
2023/09/13 05:38:45;;;;;;;21.33;17.08;;;22.10;1.00;;;;;;5020680;28;20469;-76
2023/09/13 05:41:12;;;;;;;16.30;14.80;;;22.10;1.00;;;;;;5004094;28;20032;-75
2023/09/13 05:43:39;;;;;;;17.02;15.07;;;22.10;1.00;;;;;;5019058;28;20030;-75
2023/09/13 05:46:06;;;;;;;18.00;15.27;;;22.10;1.00;;;;;;5021768;28;20029;-75
2023/09/13 05:48:32;;;;;;;17.88;16.17;;;22.10;1.00;;;;;;5021821;28;20054;-75
2023/09/13 05:50:58;;;;;;;21.65;16.35;;;22.10;1.00;;;;;;5025655;28;20389;-76
2023/09/13 05:53:24;;;;;;;16.63;14.82;;;22.10;1.00;;;;;;5002773;28;20391;-76
2023/09/13 05:55:50;;;;;;;18.00;16.17;;;22.10;1.00;;;;;;5003528;28;20029;-75
2023/09/13 05:58:17;;;;;;;17.77;16.05;;;22.10;1.00;;;;;;5020683;28;20141;-76
2023/09/13 06:00:48;;;;;;;18.58;15.27;;;22.20;1.00;;;;;;5017304;28;20072;-76
2023/09/13 06:03:15;;;;;;;24.73;16.90;;;22.20;1.00;;;;;;5034469;28;20076;-76
2023/09/13 06:05:41;;;;;;;20.40;16.25;;;22.20;1.00;;;;;;5025200;28;20046;-76
2023/09/13 06:08:07;;;;;;;17.38;14.93;;;22.20;1.00;;;;;;5021908;28;20024;-76
2023/09/13 06:10:33;;;;;;;20.45;15.63;;;22.20;1.00;;;;;;5018064;28;20601;-75
2023/09/13 06:12:58;;;;;;;19.38;15.90;;;22.20;1.00;;;;;;5021610;28;20017;-75
2023/09/13 06:15:24;;;;;;;19.60;15.52;;;22.20;1.00;;;;;;5022664;28;20033;-76
2023/09/13 06:17:51;;;;;;;17.27;15.20;;;22.20;1.00;;;;;;5026913;28;20113;-75
2023/09/13 06:20:17;;;;;;;17.17;15.35;;;22.20;1.00;;;;;;5024194;28;20504;-75
2023/09/13 06:22:43;;;;;;;20.70;14.88;;;22.20;1.00;;;;;;5004170;28;20022;-76
2023/09/13 06:25:09;;;;;;;16.67;15.07;;;22.20;1.00;;;;;;5029782;28;20462;-76
2023/09/13 06:27:34;;;;;;;18.17;15.32;;;22.30;1.00;;;;;;5026677;28;20040;-76
2023/09/13 06:30:00;;;;;;;20.17;15.30;;;22.30;1.00;;;;;;5023342;28;20073;-76
2023/09/13 06:32:26;;;;;;;21.00;14.75;;;22.30;1.00;;;;;;5026755;28;20133;-76
2023/09/13 06:34:58;;;;;;;18.13;15.90;;;22.30;1.00;;;;;;5027943;28;20029;-75
2023/09/13 06:37:25;;;;;;;21.17;15.82;;;22.30;1.00;;;;;;5009857;28;20057;-76
2023/09/13 06:39:51;;;;;;;19.80;15.82;;;22.30;1.00;;;;;;5016897;28;20029;-76
2023/09/13 06:42:17;;;;;;;16.98;15.13;;;22.40;1.00;;;;;;5005390;28;20056;-75
2023/09/13 06:44:43;;;;;;;17.52;15.73;;;22.40;1.00;;;;;;5022382;28;20557;-76
2023/09/13 06:47:08;;;;;;;18.95;16.05;;;22.40;1.00;;;;;;5025227;28;20025;-75
2023/09/13 06:49:35;;;;;;;21.77;15.13;;;22.50;1.00;;;;;;5021455;28;20060;-75
2023/09/13 06:52:01;;;;;;;17.45;15.65;;;22.50;1.00;;;;;;5024740;28;20032;-75
2023/09/13 06:54:27;;;;;;;17.35;15.38;;;22.50;1.00;;;;;;5024743;28;20040;-76
2023/09/13 06:56:53;;;;;;;18.08;16.10;;;22.50;1.00;;;;;;5026813;28;20022;-75
2023/09/13 06:59:22;;;;;;;17.38;15.68;;;22.50;1.00;;;;;;5017572;28;20116;-75
2023/09/13 07:01:48;;;;;;;18.80;16.40;;;22.50;1.00;;;;;;5019854;28;20021;-76
2023/09/13 07:04:14;;;;;;;18.33;15.55;;;22.50;1.00;;;;;;5034262;28;20110;-75
2023/09/13 07:06:40;;;;;;;19.85;16.92;;;22.50;1.00;;;;;;5030275;28;20090;-76
2023/09/13 07:09:06;;;;;;;19.25;16.58;;;22.50;1.50;;;;;;5022314;28;20029;-76
2023/09/13 07:11:32;;;;;;;17.10;15.40;;;22.50;8.70;;;;;;5024640;28;20108;-76
2023/09/13 07:13:59;;;;;;;18.17;16.30;;;22.50;13.20;;;;;;5032454;28;20025;-76
2023/09/13 07:16:25;;;;;;;20.20;17.27;;;22.50;15.50;;;;;;5019022;28;20093;-75
2023/09/13 07:18:51;;;;;;;19.17;16.70;;;22.50;36.40;;;;;;5030659;28;20041;-76
2023/09/13 07:21:17;;;;;;;19.63;16.55;;;22.50;30.00;;;;;;5011156;28;20030;-75
2023/09/13 07:23:44;;;;;;;19.92;17.15;;;22.50;36.10;;;;;;5011397;28;20037;-75
2023/09/13 07:26:10;;;;;;;20.95;16.70;;;22.50;30.90;;;;;;5017124;28;20097;-76
2023/09/13 07:28:36;;;;;;;18.92;16.88;;;22.60;28.50;;;;;;5031036;28;20111;-76
2023/09/13 07:31:06;;;;;;;19.27;17.27;;;22.50;29.10;;;;;;5022686;28;20743;-76
2023/09/13 07:33:32;;;;;;;19.52;17.48;;;22.60;32.40;;;;;;5017002;28;20767;-76
2023/09/13 07:35:58;;;;;;;20.38;18.23;;;22.60;44.80;;;;;;5022458;28;20053;-75
2023/09/13 07:38:23;;;;;;;21.60;17.80;;;22.60;45.60;;;;;;5016913;28;20026;-76
2023/09/13 07:40:49;;;;;;;24.13;18.02;;;22.60;47.80;;;;;;5016966;28;20025;-76
2023/09/13 07:43:16;;;;;;;20.92;18.40;;;22.60;50.90;;;;;;5022891;28;20562;-76
2023/09/13 07:45:41;;;;;;;25.63;18.10;;;22.70;57.00;;;;;;5007010;28;20540;-76
2023/09/13 07:48:07;;;;;;;21.15;18.92;;;22.70;69.90;;;;;;5014231;28;20018;-75
2023/09/13 07:50:40;;;;;;;23.27;20.25;;;22.70;69.70;;;;;;5018347;28;20061;-76
2023/09/13 07:53:06;;;;;;;27.90;18.85;;;22.80;78.00;;;;;;5025788;28;20096;-76
2023/09/13 07:55:32;;;;;;;21.63;19.13;;;22.80;74.70;;;;;;5030118;28;20021;-76
2023/09/13 07:57:58;;;;;;;23.25;20.13;;;22.80;62.50;;;;;;5030451;28;20044;-76
2023/09/13 08:00:24;;;;;;;28.77;19.30;;;22.90;50.90;;;;;;5019817;28;20577;-76
2023/09/13 08:02:49;;;;;;;20.52;18.33;;;22.90;45.30;;;;;;5024258;28;20454;-77
2023/09/13 08:05:16;;;;;;;19.92;17.77;;;23.00;38.40;;;;;;5005665;28;20087;-76
2023/09/13 08:07:44;;;;;;;20.95;18.40;;;23.00;35.80;;;;;;5012751;28;20677;-76
2023/09/13 08:10:09;;;;;;;21.88;19.45;;;23.00;44.40;;;;;;5021652;28;20033;-76
2023/09/13 08:12:35;;;;;;;21.70;17.38;;;23.00;49.80;;;;;;5010523;28;20026;-75
2023/09/13 08:15:01;;;;;;;24.95;18.90;;;23.00;36.10;;;;;;4994467;28;20026;-75
2023/09/13 08:17:26;;;;;;;28.25;20.73;;;23.10;26.40;;;;;;5023323;28;20080;-76
2023/09/13 08:19:52;;;;;;;24.70;20.17;;;23.00;50.40;;;;;;5025770;28;20454;-74
2023/09/13 08:22:18;;;;;;;36.55;21.85;;;23.10;52.30;;;;;;4995594;28;20181;-75
2023/09/13 08:24:43;;;;;;;25.63;21.75;;;23.10;54.10;;;;;;5020068;28;20030;-75
2023/09/13 08:27:09;;;;;;;35.22;25.25;;;23.10;47.90;;;;;;5017719;28;20458;-75
2023/09/13 08:29:35;;;;;;;31.73;25.20;;;23.10;24.60;;;;;;5015249;28;20153;-75
2023/09/13 08:32:01;;;;;;;27.80;24.25;;;23.10;36.30;;;;;;5017441;28;20068;-75
2023/09/13 08:34:26;;;;;;;33.30;24.02;;;23.10;31.90;;;;;;5013860;28;20481;-75
2023/09/13 08:36:55;;;;;;;30.77;22.95;;;23.20;25.60;;;;;;5016196;28;20036;-75
2023/09/13 08:39:20;;;;;;;23.98;20.58;;;23.20;29.40;;;;;;5017226;28;20053;-75
2023/09/13 08:41:50;;;;;;;22.90;20.38;;;23.30;26.60;;;;;;5014606;28;20061;-75
2023/09/13 08:44:22;;;;;;;21.70;19.55;;;23.40;22.30;;;;;;5013678;28;20022;-75
2023/09/13 08:46:55;;;;;;;22.73;20.30;;;23.40;10.20;;;;;;5015281;28;20079;-75
2023/09/13 08:49:25;;;;;;;25.67;21.15;;;23.40;15.40;;;;;;5017648;28;20112;-74
2023/09/13 08:51:54;;;;;;;26.10;22.05;;;23.50;10.40;;;;;;5015086;28;20042;-75
2023/09/13 08:54:21;;;;;;;24.38;21.50;;;23.60;25.20;;;;;;5014486;28;20133;-75
2023/09/13 08:56:47;;;;;;;31.67;23.33;;;23.70;27.00;;;;;;5008462;28;20026;-74
2023/09/13 08:59:13;;;;;;;34.22;24.27;;;23.70;25.20;;;;;;5006243;28;20034;-75
2023/09/13 09:01:46;;;;;;;41.50;28.23;;;23.70;16.10;;;;;;5015985;28;20030;-75
2023/09/13 09:04:14;;;;;;;34.83;26.52;;;23.70;29.90;;;;;;5015483;28;20117;-75
2023/09/13 09:06:40;;;;;;;47.50;26.85;;;23.80;28.30;;;;;;5015815;28;20401;-74
2023/09/13 09:09:07;;;;;;;41.50;28.10;;;23.90;24.10;;;;;;5017404;28;20029;-75
2023/09/13 09:11:36;;;;;;;38.00;28.45;;;23.90;15.10;;;;;;5018425;28;20477;-75
2023/09/13 09:14:02;;;;;;;37.60;28.00;;;24.00;9.30;;;;;;5001541;28;20112;-75
2023/09/13 09:16:30;;;;;;;32.53;26.35;;;24.00;1.00;;;;;;5014635;28;20208;-75
2023/09/13 09:18:59;;;;;;;33.35;25.02;;;24.10;1.00;;;;;;5016355;28;20022;-75
2023/09/13 09:21:25;;;;;;;27.73;23.85;;;24.10;1.00;;;;;;5018365;28;20409;-75
2023/09/13 09:23:51;;;;;;;29.70;23.85;;;24.20;1.00;;;;;;5020328;28;20037;-75
2023/09/13 09:26:17;;;;;;;25.75;22.65;;;24.20;1.00;;;;;;5019806;28;20135;-75
2023/09/13 09:28:43;;;;;;;23.65;21.10;;;24.30;1.00;;;;;;5025198;28;20215;-75
2023/09/13 09:31:10;;;;;;;21.98;19.63;;;24.40;1.00;;;;;;5020443;28;20022;-75
2023/09/13 09:33:38;;;;;;;30.15;18.92;;;24.40;1.00;;;;;;5019725;28;20473;-74
2023/09/13 09:36:04;;;;;;;21.95;18.75;;;24.40;99.90;;;;;;5022364;28;20028;-74
2023/09/13 09:38:30;;;;;;;21.52;18.27;;;24.50;99.90;;;;;;5018013;28;20044;-75
2023/09/13 09:40:58;;;;;;;18.08;16.02;;;24.60;99.90;;;;;;5020763;28;20030;-75
2023/09/13 09:43:24;;;;;;;19.88;17.08;;;24.70;99.90;;;;;;5022719;28;20051;-75
2023/09/13 09:45:50;;;;;;;25.75;18.42;;;24.70;99.90;;;;;;5022320;28;20033;-75
2023/09/13 09:48:16;;;;;;;20.30;17.30;;;24.80;99.90;;;;;;5019393;28;20034;-74
2023/09/13 09:50:46;;;;;;;22.20;18.77;;;24.80;99.90;;;;;;5019868;28;20049;-74
2023/09/13 09:53:15;;;;;;;18.67;16.75;;;24.90;99.90;;;;;;5017177;28;20042;-75
2023/09/13 09:55:44;;;;;;;20.55;17.75;;;24.90;99.90;;;;;;5019261;28;20030;-74
2023/09/13 09:58:11;;;;;;;20.83;17.67;;;24.90;99.90;;;;;;5023669;28;20109;-75
2023/09/13 10:01:03;;;;;;;22.30;16.70;;;25.00;99.90;;;;;;5020007;28;20116;-75
2023/09/13 10:03:38;;;;;;;20.27;18.10;;;25.00;99.90;;;;;;5014451;28;20037;-74
2023/09/13 10:06:11;;;;;;;23.48;18.38;;;25.10;99.90;;;;;;5017844;28;20594;-75
2023/09/13 10:08:45;;;;;;;27.77;18.02;;;25.10;99.90;;;;;;5021194;28;20032;-74
2023/09/13 10:11:12;;;;;;;22.90;17.10;;;25.10;99.90;;;;;;5018799;28;20030;-74
2023/09/13 10:13:39;;;;;;;24.77;18.95;;;25.20;99.90;;;;;;5019600;28;20399;-74
2023/09/13 10:16:11;;;;;;;22.10;18.15;;;25.20;99.90;;;;;;5021429;28;20551;-74
2023/09/13 10:18:48;;;;;;;23.70;18.83;;;25.20;99.90;;;;;;5018583;28;20021;-74
2023/09/13 10:21:28;;;;;;;23.77;18.30;;;25.20;99.90;;;;;;5017573;28;20037;-74
2023/09/13 10:24:02;;;;;;;24.25;18.73;;;25.30;99.90;;;;;;5018557;28;20029;-74
2023/09/13 10:26:31;;;;;;;21.45;17.85;;;25.30;99.90;;;;;;5020923;28;20022;-74
2023/09/13 10:29:07;;;;;;;20.85;17.95;;;25.30;99.90;;;;;;5026977;28;20028;-74
2023/09/13 10:31:41;;;;;;;20.10;16.77;;;25.40;99.90;;;;;;5026244;28;20033;-75
2023/09/13 10:34:11;;;;;;;25.17;16.60;;;25.50;99.90;;;;;;5019631;28;20470;-75
2023/09/13 10:36:42;;;;;;;18.67;16.67;;;25.40;99.90;;;;;;5021981;28;20018;-74
2023/09/13 10:39:21;;;;;;;23.92;16.75;;;25.50;99.90;;;;;;5004038;28;20126;-75
2023/09/13 10:42:03;;;;;;;24.88;17.13;;;25.60;99.90;;;;;;5009293;28;20052;-75
2023/09/13 10:44:29;;;;;;;27.55;18.05;;;25.70;99.90;;;;;;5025870;28;20021;-75
2023/09/13 10:46:55;;;;;;;20.88;17.92;;;25.90;99.90;;;;;;5009319;28;20080;-75
2023/09/13 10:49:23;;;;;;;20.27;18.13;;;25.90;99.90;;;;;;5029268;28;20029;-75
2023/09/13 10:51:50;;;;;;;20.45;16.15;;;25.90;99.90;;;;;;5008299;28;20033;-75
2023/09/13 10:54:18;;;;;;;19.08;17.08;;;26.00;99.90;;;;;;5007711;28;20393;-75
2023/09/13 10:56:44;;;;;;;20.27;16.58;;;26.00;99.90;;;;;;5027130;28;20076;-75
2023/09/13 10:59:14;;;;;;;23.38;15.20;;;26.00;99.90;;;;;;5028613;28;20289;-74
2023/09/13 11:01:46;;;;;;;18.50;15.25;;;26.00;99.90;;;;;;5028169;28;20788;-75
2023/09/13 11:04:13;;;;;;;17.98;16.02;;;26.00;99.90;;;;;;5011335;28;20037;-74
2023/09/13 11:06:40;;;;;;;15.52;13.93;;;26.10;99.90;;;;;;5032004;28;20389;-74
2023/09/13 11:09:14;;;;;;;19.77;17.35;;;26.20;1.00;;;;;;5012970;28;20120;-74
2023/09/13 11:11:51;;;;;;;21.67;17.95;;;26.10;1.00;;;;;;5022060;28;20033;-74
2023/09/13 11:14:23;;;;;;;20.98;15.02;;;26.00;1.00;;;;;;5019380;28;20029;-74
2023/09/13 11:16:49;;;;;;;;;;;26.10;1.00;;;;;;5021894;28;20381;-74
2023/09/13 11:19:18;;;;;;;15.57;13.90;;;26.20;99.90;;;;;;5021972;28;19911;-74
2023/09/13 11:21:52;;;;;;;17.52;13.85;;;26.20;1.00;;;;;;5017018;28;20088;-74
2023/09/13 11:24:50;;;;;;;20.15;12.32;;;26.30;99.90;;;;;;5014997;28;20026;-74
2023/09/13 11:27:17;;;;;;;14.63;11.85;;;26.40;1.00;;;;;;5004243;28;20254;-74
2023/09/13 11:29:46;;;;;;;14.20;11.50;;;26.40;1.00;;;;;;5018356;28;20045;-74
2023/09/13 11:32:19;;;;;;;14.82;12.20;;;26.40;1.00;;;;;;5015658;28;20022;-74
2023/09/13 11:34:52;;;;;;;15.73;13.00;;;26.30;99.90;;;;;;5017182;28;20032;-74
2023/09/13 11:37:18;;;;;;;19.13;15.70;;;26.30;99.90;;;;;;5018527;28;20113;-74
2023/09/13 11:39:55;;;;;;;18.52;15.48;;;26.30;1.00;;;;;;5015041;28;20022;-74
2023/09/13 11:42:28;;;;;;;17.90;14.50;;;26.30;1.00;;;;;;5015673;28;20161;-74
2023/09/13 11:44:54;;;;;;;19.08;13.30;;;26.50;15.80;;;;;;5002712;28;20236;-74
2023/09/13 11:47:21;;;;;;;16.27;13.27;;;26.60;99.90;;;;;;5015773;28;20033;-74
2023/09/13 11:49:47;;;;;;;15.25;12.95;;;26.70;1.00;;;;;;5017158;28;20099;-74
2023/09/13 11:52:13;;;;;;;13.80;12.48;;;26.80;1.00;;;;;;5014358;28;20509;-74
2023/09/13 11:54:54;;;;;;;14.48;13.07;;;26.80;1.00;;;;;;5019723;28;20022;-74
2023/09/13 11:57:22;;;;;;;14.95;11.63;;;26.80;99.90;;;;;;5018200;28;20029;-74
2023/09/13 11:59:52;;;;;;;11.95;10.75;;;26.80;99.90;;;;;;5020110;28;20441;-73
2023/09/13 12:02:18;;;;;;;11.57;10.48;;;26.70;99.90;;;;;;5017618;28;20452;-74
2023/09/13 12:04:44;;;;;;;11.30;9.32;;;26.80;99.90;;;;;;5018342;28;20026;-74
2023/09/13 12:07:10;;;;;;;11.27;10.10;;;26.80;99.90;;;;;;5015845;28;20065;-74
2023/09/13 12:09:36;;;;;;;10.77;9.43;;;26.80;99.90;;;;;;5018416;28;20434;-74
2023/09/13 12:12:02;;;;;;;13.45;10.35;;;26.80;99.90;;;;;;5020328;28;20033;-74
2023/09/13 12:14:31;;;;;;;13.60;11.57;;;26.90;99.90;;;;;;5016893;28;20509;-74
2023/09/13 12:16:57;;;;;;;12.88;11.20;;;26.80;99.90;;;;;;5018770;28;20018;-74
2023/09/13 12:19:24;;;;;;;12.02;10.80;;;26.80;99.90;;;;;;5016330;28;20477;-74
2023/09/13 12:21:49;;;;;;;11.45;9.98;;;26.90;99.90;;;;;;5017556;28;20104;-74
2023/09/13 12:24:19;;;;;;;13.05;11.70;;;26.90;99.90;;;;;;5017339;28;20126;-74
2023/09/13 12:26:45;;;;;;;11.43;10.20;;;26.90;99.90;;;;;;5019580;28;20022;-73
2023/09/13 12:29:11;;;;;;;11.93;10.77;;;26.90;99.90;;;;;;5015709;28;20029;-74
2023/09/13 12:31:37;;;;;;;13.65;11.25;;;26.90;99.50;;;;;;5017720;28;20025;-74
2023/09/13 12:34:05;;;;;;;11.63;10.55;;;26.90;83.10;;;;;;5018077;28;20052;-74